createdAt,value
2018-09-19T00:00:50.542Z,69.62
2018-09-19T00:01:50.268Z,69.32
2018-09-19T00:02:50.255Z,69.52
2018-09-19T00:03:50.500Z,69.82
2018-09-19T00:04:50.231Z,70.42
2018-09-19T00:05:50.223Z,70.83
2018-09-19T00:06:50.608Z,70.15
2018-09-19T00:07:50.354Z,69.92
2018-09-19T00:08:50.184Z,70.62
2018-09-19T00:09:50.448Z,70.53
2018-09-19T00:10:50.174Z,70.42
2018-09-19T00:11:50.159Z,70.42
2018-09-19T00:12:50.139Z,70.53
2018-09-19T00:13:50.147Z,70.32
2018-09-19T00:14:50.119Z,70.22
2018-09-19T00:15:50.121Z,69.92
2018-09-19T00:16:50.360Z,70.73
2018-09-19T00:17:50.206Z,70.62
2018-09-19T00:18:50.337Z,70.86
2018-09-19T00:19:50.063Z,70.26
2018-09-19T00:20:50.065Z,70.86
2018-09-19T00:21:50.398Z,70.86
2018-09-19T00:22:50.035Z,71.26
2018-09-19T00:23:50.019Z,71.57
2018-09-19T00:24:50.021Z,71.77
2018-09-19T00:25:50.004Z,72.17
2018-09-19T00:26:50.502Z,72.07
2018-09-19T00:27:49.978Z,72.17
2018-09-19T00:28:49.977Z,72.61
2018-09-19T00:29:49.956Z,72.67
2018-09-19T00:30:49.956Z,72.07
2018-09-19T00:31:50.073Z,72.67
2018-09-19T00:32:49.917Z,72.17
2018-09-19T00:33:49.912Z,72.07
2018-09-19T00:34:49.909Z,71.77
2018-09-19T00:35:49.885Z,72.07
2018-09-19T00:36:49.877Z,72.07
2018-09-19T00:37:49.883Z,72.58
2018-09-19T00:38:49.852Z,72.61
2018-09-19T00:39:49.850Z,73.01
2018-09-19T00:40:49.867Z,72.71
2018-09-19T00:41:49.821Z,72.81
2018-09-19T00:42:50.083Z,72.98
2018-09-19T00:43:49.811Z,73.01
2018-09-19T00:44:49.812Z,72.61
2018-09-19T00:45:49.773Z,72.81
2018-09-19T00:46:49.780Z,72.81
2018-09-19T00:47:49.752Z,72.41
2018-09-19T00:48:49.750Z,72.81
2018-09-19T00:49:49.777Z,72.81
2018-09-19T00:50:49.721Z,72.71
2018-09-19T00:51:49.710Z,73.05
2018-09-19T00:52:49.959Z,73.62
2018-09-19T00:53:49.693Z,73.35
2018-09-19T00:54:49.674Z,73.96
2018-09-19T00:55:49.790Z,74.05
2018-09-19T00:56:49.654Z,73.65
2018-09-19T00:57:49.644Z,73.25
2018-09-19T00:58:49.644Z,74.16
2018-09-19T00:59:49.624Z,73.75
2018-09-19T01:00:49.609Z,73.96
2018-09-19T01:01:49.661Z,73.65
2018-09-19T01:02:49.595Z,73.85
2018-09-19T01:03:49.574Z,73.96
2018-09-19T01:04:49.564Z,74.16
2018-09-19T01:05:49.882Z,73.79
2018-09-19T01:06:49.553Z,73.89
2018-09-19T01:07:49.532Z,73.89
2018-09-19T01:08:49.523Z,73.99
2018-09-19T01:09:49.511Z,74.29
2018-09-19T01:10:49.529Z,74.43
2018-09-19T01:11:49.506Z,75.10
2018-09-19T01:12:49.479Z,74.63
2018-09-19T01:13:49.482Z,74.63
2018-09-19T01:14:49.463Z,75.04
2018-09-19T01:15:49.450Z,75.24
2018-09-19T01:16:49.709Z,75.44
2018-09-19T01:17:49.523Z,75.13
2018-09-19T01:18:49.412Z,75.64
2018-09-19T01:19:49.418Z,76.59
2018-09-19T01:20:49.439Z,75.88
2018-09-19T01:21:49.464Z,76.69
2018-09-19T01:22:49.368Z,76.48
2018-09-19T01:23:49.357Z,76.18
2018-09-19T01:24:50.108Z,76.79
2018-09-19T01:25:49.354Z,76.28
2018-09-19T01:26:49.331Z,76.69
2018-09-19T01:27:49.311Z,77.23
2018-09-19T01:30:20.373Z,77.64
2018-09-19T01:30:20.748Z,77.33
2018-09-19T01:30:49.340Z,77.13
2018-09-19T01:31:49.542Z,77.64
2018-09-19T01:32:49.255Z,78.34
2018-09-19T01:34:20.654Z,78.28
2018-09-19T01:34:51.927Z,78.24
2018-09-19T01:35:49.570Z,78.78
2018-09-19T01:36:49.292Z,78.48
2018-09-19T01:37:49.286Z,78.58
2018-09-19T01:38:49.361Z,78.68
2018-09-19T01:39:49.268Z,79.08
2018-09-19T01:40:49.539Z,79.19
2018-09-19T01:41:49.298Z,78.88
2018-09-19T01:42:49.245Z,78.99
2018-09-19T01:43:49.267Z,79.43
2018-09-19T01:44:49.219Z,79.13
2018-09-19T01:45:49.474Z,79.83
2018-09-19T01:46:49.442Z,79.73
2018-09-19T01:47:49.435Z,79.63
2018-09-19T01:48:49.196Z,80.44
2018-09-19T01:49:49.416Z,80.27
2018-09-19T01:50:49.135Z,79.77
2018-09-19T01:51:49.049Z,79.77
2018-09-19T01:52:49.163Z,80.13
2018-09-19T01:53:49.015Z,80.18
2018-09-19T01:54:49.123Z,80.27
2018-09-19T01:55:49.076Z,80.88
2018-09-19T01:56:48.997Z,80.88
2018-09-19T01:57:49.067Z,80.88
2018-09-19T01:58:48.964Z,80.88
2018-09-19T01:59:48.947Z,80.78
2018-09-19T02:00:49.045Z,80.98
2018-09-19T02:01:49.018Z,81.39
2018-09-19T02:02:48.997Z,81.39
2018-09-19T02:03:49.575Z,81.29
2018-09-19T02:04:49.023Z,81.73
2018-09-19T02:05:48.979Z,81.63
2018-09-19T02:06:48.960Z,81.43
2018-09-19T02:07:48.977Z,81.83
2018-09-19T02:08:49.475Z,81.73
2018-09-19T02:09:48.863Z,82.54
2018-09-19T02:10:48.931Z,81.73
2018-09-19T02:11:48.902Z,81.63
2018-09-19T02:12:49.172Z,82.03
2018-09-19T02:13:48.796Z,82.24
2018-09-19T02:14:49.499Z,82.24
2018-09-19T02:15:48.773Z,82.24
2018-09-19T02:16:49.121Z,82.48
2018-09-19T02:17:48.991Z,82.48
2018-09-19T02:18:48.834Z,82.17
2018-09-19T02:19:51.960Z,82.28
2018-09-19T02:20:48.865Z,82.48
2018-09-19T02:21:48.711Z,82.48
2018-09-19T02:22:48.727Z,83.09
2018-09-19T02:23:48.786Z,83.49
2018-09-19T02:24:48.783Z,83.09
2018-09-19T02:25:49.687Z,82.92
2018-09-19T02:26:48.650Z,83.03
2018-09-19T02:27:48.640Z,83.18
2018-09-19T02:28:48.750Z,82.58
2018-09-19T02:29:48.892Z,83.18
2018-09-19T02:30:48.703Z,83.33
2018-09-19T02:31:49.563Z,83.03
2018-09-19T02:32:48.594Z,83.23
2018-09-19T02:33:48.592Z,83.63
2018-09-19T02:34:48.650Z,83.73
2018-09-19T02:35:48.959Z,84.24
2018-09-19T02:36:48.541Z,84.24
2018-09-19T02:37:48.814Z,83.83
2018-09-19T02:38:48.630Z,84.04
2018-09-19T02:39:48.532Z,84.18
2018-09-19T02:40:48.508Z,83.83
2018-09-19T02:41:48.568Z,84.38
2018-09-19T02:42:48.487Z,84.18
2018-09-19T02:43:48.730Z,83.67
2018-09-19T02:44:48.551Z,84.38
2018-09-19T02:45:48.441Z,83.98
2018-09-19T02:46:48.442Z,84.38
2018-09-19T02:47:48.704Z,84.69
2018-09-19T02:48:48.488Z,84.63
2018-09-19T02:49:48.491Z,84.83
2018-09-19T02:50:48.387Z,84.93
2018-09-19T02:51:48.505Z,85.24
2018-09-19T02:52:48.468Z,85.03
2018-09-19T02:53:48.395Z,85.44
2018-09-19T02:54:48.343Z,85.13
2018-09-19T02:55:48.326Z,86.05
2018-09-19T02:56:48.315Z,86.25
2018-09-19T02:57:48.395Z,85.84
2018-09-19T02:58:48.304Z,85.74
2018-09-19T02:59:48.385Z,86.35
2018-09-19T03:00:48.607Z,86.05
2018-09-19T03:01:48.265Z,85.84
2018-09-19T03:02:48.374Z,86.25
2018-09-19T03:03:48.300Z,86.55
2018-09-19T03:04:48.233Z,86.76
2018-09-19T03:05:48.498Z,86.86
2018-09-19T03:06:48.217Z,86.45
2018-09-19T03:07:48.211Z,86.86
2018-09-19T03:08:48.462Z,86.55
2018-09-19T03:09:48.261Z,86.76
2018-09-19T03:10:48.170Z,87.00
2018-09-19T03:11:48.153Z,85.94
2018-09-19T03:12:48.139Z,86.45
2018-09-19T03:13:48.128Z,86.76
2018-09-19T03:14:48.164Z,86.65
2018-09-19T03:15:48.492Z,86.96
2018-09-19T03:16:48.096Z,86.69
2018-09-19T03:17:48.594Z,86.90
2018-09-19T03:18:48.073Z,87.30
2018-09-19T03:19:48.065Z,87.71
2018-09-19T03:20:48.062Z,87.30
2018-09-19T03:21:48.320Z,87.51
2018-09-19T03:22:48.044Z,87.10
2018-09-19T03:23:48.021Z,88.01
2018-09-19T03:24:48.029Z,88.01
2018-09-19T03:25:48.368Z,88.28
2018-09-19T03:26:47.986Z,87.81
2018-09-19T03:27:48.060Z,87.67
2018-09-19T03:28:47.967Z,87.77
2018-09-19T03:29:48.062Z,87.46
2018-09-19T03:30:48.027Z,87.30
2018-09-19T03:31:47.930Z,86.90
2018-09-19T03:32:48.023Z,86.96
2018-09-19T03:33:48.272Z,86.86
2018-09-19T03:34:48.011Z,86.80
2018-09-19T03:35:47.899Z,86.90
2018-09-19T03:36:47.901Z,87.30
2018-09-19T03:37:47.879Z,87.30
2018-09-19T03:38:48.485Z,87.30
2018-09-19T03:39:48.109Z,87.61
2018-09-19T03:40:47.972Z,87.81
2018-09-19T03:41:47.823Z,87.71
2018-09-19T03:42:47.807Z,88.12
2018-09-19T03:43:48.080Z,87.92
2018-09-19T03:44:47.802Z,88.21
2018-09-19T03:45:48.143Z,88.01
2018-09-19T03:46:48.034Z,87.92
2018-09-19T03:47:47.757Z,88.12
2018-09-19T03:48:47.747Z,88.73
2018-09-19T03:49:47.768Z,88.42
2018-09-19T03:50:48.384Z,89.13
2018-09-19T03:51:47.982Z,88.52
2018-09-19T03:52:47.702Z,88.73
2018-09-19T03:53:47.693Z,89.03
2018-09-19T03:54:47.677Z,88.42
2018-09-19T03:55:48.319Z,88.01
2018-09-19T03:56:47.696Z,88.01
2018-09-19T03:57:47.675Z,87.71
2018-09-19T03:58:47.992Z,88.21
2018-09-19T03:59:47.896Z,88.42
2018-09-19T04:00:47.888Z,87.92
2018-09-19T04:01:47.687Z,88.21
2018-09-19T04:02:47.591Z,88.42
2018-09-19T04:03:47.584Z,87.92
2018-09-19T04:04:47.578Z,87.92
2018-09-19T04:05:47.566Z,88.21
2018-09-19T04:06:47.818Z,88.21
2018-09-19T04:07:47.621Z,88.01
2018-09-19T04:08:48.074Z,88.12
2018-09-19T04:09:47.785Z,88.18
2018-09-19T04:10:47.815Z,88.07
2018-09-19T04:11:47.575Z,88.38
2018-09-19T04:12:47.475Z,88.58
2018-09-19T04:13:47.506Z,88.68
2018-09-19T04:14:47.455Z,87.57
2018-09-19T04:15:47.443Z,87.67
2018-09-19T04:16:47.847Z,87.57
2018-09-19T04:17:47.774Z,87.87
2018-09-19T04:18:47.424Z,87.77
2018-09-19T04:19:47.402Z,87.46
2018-09-19T04:20:47.390Z,87.77
2018-09-19T04:21:47.378Z,87.97
2018-09-19T04:22:47.375Z,87.37
2018-09-19T04:23:47.388Z,87.67
2018-09-19T04:24:47.349Z,87.87
2018-09-19T04:25:47.332Z,87.73
2018-09-19T04:26:47.326Z,87.16
2018-09-19T04:27:47.313Z,86.96
2018-09-19T04:28:47.661Z,86.96
2018-09-19T04:29:47.367Z,87.87
2018-09-19T04:30:47.324Z,87.87
2018-09-19T04:31:47.280Z,87.97
2018-09-19T04:32:47.259Z,87.67
2018-09-19T04:33:47.300Z,87.93
2018-09-19T04:34:47.507Z,87.97
2018-09-19T04:35:48.058Z,87.57
2018-09-19T04:36:47.291Z,87.37
2018-09-19T04:37:47.293Z,88.18
2018-09-19T04:38:47.198Z,88.18
2018-09-19T04:39:47.193Z,87.73
2018-09-19T04:40:47.170Z,87.87
2018-09-19T04:41:47.157Z,87.46
2018-09-19T04:42:47.227Z,87.93
2018-09-19T04:43:47.156Z,86.65
2018-09-19T04:44:47.122Z,86.86
2018-09-19T04:45:47.393Z,86.76
2018-09-19T04:46:47.141Z,87.06
2018-09-19T04:47:47.097Z,86.96
2018-09-19T04:48:47.088Z,88.18
2018-09-19T04:49:47.336Z,87.97
2018-09-19T04:50:47.325Z,88.18
2018-09-19T04:51:47.052Z,87.87
2018-09-19T04:52:47.053Z,87.57
2018-09-19T04:53:47.041Z,87.97
2018-09-19T04:54:47.010Z,88.07
2018-09-19T04:55:47.005Z,87.67
2018-09-19T04:56:46.991Z,88.48
2018-09-19T04:57:47.173Z,88.07
2018-09-19T04:58:46.975Z,88.21
2018-09-19T04:59:46.959Z,88.12
2018-09-19T05:00:46.954Z,87.81
2018-09-19T05:01:46.935Z,88.21
2018-09-19T05:02:47.032Z,87.81
2018-09-19T05:03:46.915Z,88.12
2018-09-19T05:04:47.192Z,88.12
2018-09-19T05:05:49.213Z,87.92
2018-09-19T05:06:47.003Z,88.12
2018-09-19T05:07:47.147Z,88.21
2018-09-19T05:08:46.863Z,88.82
2018-09-19T05:09:46.913Z,88.93
2018-09-19T05:10:46.847Z,89.23
2018-09-19T05:11:46.851Z,88.52
2018-09-19T05:12:46.830Z,88.82
2018-09-19T05:13:46.856Z,88.93
2018-09-19T05:14:47.074Z,88.82
2018-09-19T05:15:46.786Z,88.82
2018-09-19T05:16:46.788Z,88.73
2018-09-19T05:17:46.765Z,88.93
2018-09-19T05:18:46.747Z,88.12
2018-09-19T05:19:46.746Z,88.32
2018-09-19T05:20:46.754Z,89.03
2018-09-19T05:21:46.819Z,88.12
2018-09-19T05:22:46.711Z,88.62
2018-09-19T05:23:46.697Z,89.03
2018-09-19T05:24:47.418Z,88.62
2018-09-19T05:25:46.681Z,88.82
2018-09-19T05:26:46.662Z,88.93
2018-09-19T05:27:46.653Z,89.33
2018-09-19T05:28:46.682Z,89.54
2018-09-19T05:29:46.894Z,89.33
2018-09-19T05:30:46.890Z,88.99
2018-09-19T05:31:46.960Z,88.58
2018-09-19T05:32:46.648Z,88.68
2018-09-19T05:33:46.715Z,88.68
2018-09-19T05:34:46.703Z,88.18
2018-09-19T05:35:46.706Z,88.48
2018-09-19T05:36:46.835Z,88.28
2018-09-19T05:37:47.183Z,87.77
2018-09-19T05:38:46.647Z,87.97
2018-09-19T05:39:46.926Z,88.28
2018-09-19T05:40:46.614Z,88.68
2018-09-19T05:41:46.646Z,88.89
2018-09-19T05:42:46.493Z,88.89
2018-09-19T05:43:46.611Z,88.58
2018-09-19T05:44:46.595Z,88.48
2018-09-19T05:45:46.724Z,88.89
2018-09-19T05:46:46.448Z,88.89
2018-09-19T05:47:46.549Z,88.99
2018-09-19T05:48:46.435Z,88.23
2018-09-19T05:49:46.419Z,87.43
2018-09-19T05:50:46.415Z,87.79
2018-09-19T05:51:46.690Z,87.79
2018-09-19T05:52:46.454Z,87.99
2018-09-19T05:53:46.374Z,87.89
2018-09-19T05:54:46.473Z,87.69
2018-09-19T05:55:46.353Z,87.59
2018-09-19T05:56:46.340Z,87.28
2018-09-19T05:57:46.340Z,87.99
2018-09-19T05:58:46.319Z,87.89
2018-09-19T05:59:46.303Z,87.59
2018-09-19T06:00:46.290Z,87.69
2018-09-19T06:01:46.280Z,87.79
2018-09-19T06:02:46.536Z,87.48
2018-09-19T06:03:46.273Z,87.59
2018-09-19T06:04:46.285Z,87.59
2018-09-19T06:05:46.237Z,87.45
2018-09-19T06:06:46.235Z,87.34
2018-09-19T06:07:46.637Z,87.74
2018-09-19T06:08:46.500Z,87.54
2018-09-19T06:09:46.193Z,87.65
2018-09-19T06:10:46.183Z,87.74
2018-09-19T06:11:46.171Z,87.34
2018-09-19T06:12:46.242Z,87.65
2018-09-19T06:13:46.148Z,87.95
2018-09-19T06:14:46.410Z,87.51
2018-09-19T06:15:46.136Z,87.71
2018-09-19T06:16:46.116Z,87.60
2018-09-19T06:17:46.116Z,86.79
2018-09-19T06:18:46.360Z,87.60
2018-09-19T06:19:46.085Z,87.66
2018-09-19T06:20:46.080Z,86.96
2018-09-19T06:21:46.066Z,87.05
2018-09-19T06:22:46.165Z,87.05
2018-09-19T06:23:46.119Z,87.05
2018-09-19T06:24:46.036Z,86.76
2018-09-19T06:25:46.016Z,86.41
2018-09-19T06:26:49.663Z,86.31
2018-09-19T06:27:47.668Z,86.21
2018-09-19T06:28:46.046Z,86.31
2018-09-19T06:29:45.978Z,85.80
2018-09-19T06:30:46.252Z,85.46
2018-09-19T06:31:46.652Z,85.46
2018-09-19T06:32:45.979Z,85.46
2018-09-19T06:33:46.192Z,85.46
2018-09-19T06:34:46.012Z,85.05
2018-09-19T06:35:45.921Z,85.05
2018-09-19T06:36:45.925Z,84.81
2018-09-19T06:37:46.833Z,84.71
2018-09-19T06:38:46.664Z,83.90
2018-09-19T06:39:46.174Z,83.80
2018-09-19T06:40:46.052Z,84.61
2018-09-19T06:41:45.837Z,84.97
2018-09-19T06:42:46.128Z,83.36
2018-09-19T06:43:45.815Z,83.96
2018-09-19T06:44:45.830Z,83.05
2018-09-19T06:45:45.853Z,83.26
2018-09-19T06:46:45.815Z,82.91
2018-09-19T06:47:45.798Z,83.32
2018-09-19T06:48:45.768Z,82.91
2018-09-19T06:49:45.753Z,82.21
2018-09-19T06:50:45.749Z,82.51
2018-09-19T06:51:46.059Z,82.37
2018-09-19T06:52:45.996Z,82.07
2018-09-19T06:53:45.723Z,82.07
2018-09-19T06:54:45.971Z,82.17
2018-09-19T06:55:45.818Z,82.07
2018-09-19T06:56:45.778Z,82.27
2018-09-19T06:57:45.677Z,81.52
2018-09-19T06:58:45.663Z,81.32
2018-09-19T06:59:46.220Z,81.42
2018-09-19T07:00:45.640Z,80.82
2018-09-19T07:01:45.630Z,80.92
2018-09-19T07:02:45.620Z,80.92
2018-09-19T07:03:46.241Z,80.88
2018-09-19T07:04:45.587Z,81.12
2018-09-19T07:05:45.644Z,80.78
2018-09-19T07:06:45.864Z,81.18
2018-09-19T07:07:45.613Z,80.88
2018-09-19T07:08:45.547Z,81.08
2018-09-19T07:09:45.529Z,80.47
2018-09-19T07:10:45.553Z,80.44
2018-09-19T07:11:45.520Z,81.04
2018-09-19T07:12:45.516Z,80.33
2018-09-19T07:13:45.532Z,79.69
2018-09-19T07:14:45.483Z,79.69
2018-09-19T07:15:45.475Z,79.39
2018-09-19T07:16:45.466Z,79.60
2018-09-19T07:17:45.453Z,79.19
2018-09-19T07:18:46.273Z,79.05
2018-09-19T07:19:45.683Z,79.16
2018-09-19T07:20:48.391Z,78.65
2018-09-19T07:21:45.401Z,78.75
2018-09-19T07:22:45.418Z,78.75
2018-09-19T07:23:45.720Z,79.05
2018-09-19T07:24:45.506Z,78.31
2018-09-19T07:25:45.629Z,78.41
2018-09-19T07:26:46.328Z,78.41
2018-09-19T07:27:45.428Z,77.40
2018-09-19T07:28:45.339Z,77.61
2018-09-19T07:29:45.307Z,77.27
2018-09-19T07:30:45.302Z,77.37
2018-09-19T07:31:45.308Z,76.97
2018-09-19T07:32:45.293Z,76.97
2018-09-19T07:33:45.271Z,76.56
2018-09-19T07:34:45.264Z,76.63
2018-09-19T07:35:45.251Z,76.63
2018-09-19T07:36:45.228Z,76.53
2018-09-19T07:37:45.227Z,75.92
2018-09-19T07:38:45.219Z,76.93
2018-09-19T07:39:45.216Z,76.49
2018-09-19T07:40:45.201Z,75.59
2018-09-19T07:41:45.378Z,75.38
2018-09-19T07:42:45.167Z,74.98
2018-09-19T07:43:45.180Z,74.38
2018-09-19T07:44:45.143Z,74.68
2018-09-19T07:45:45.399Z,73.98
2018-09-19T07:46:45.165Z,74.08
2018-09-19T07:47:45.538Z,73.64
2018-09-19T07:48:45.110Z,73.34
2018-09-19T07:49:45.216Z,73.64
2018-09-19T07:50:45.101Z,73.54
2018-09-19T07:51:45.375Z,74.81
2018-09-19T07:52:45.321Z,74.51
2018-09-19T07:53:45.050Z,74.21
2018-09-19T07:54:45.150Z,73.61
2018-09-19T07:55:45.044Z,73.87
2018-09-19T07:56:45.051Z,73.27
2018-09-19T07:57:45.008Z,73.77
2018-09-19T07:58:45.169Z,72.77
2018-09-19T07:59:45.250Z,73.87
2018-09-19T08:00:45.301Z,73.97
2018-09-19T08:01:45.049Z,73.54
2018-09-19T08:02:45.201Z,72.74
2018-09-19T08:03:45.087Z,72.74
2018-09-19T08:04:44.965Z,72.74
2018-09-19T08:05:44.934Z,72.33
2018-09-19T08:06:44.914Z,72.60
2018-09-19T08:07:44.889Z,71.90
2018-09-19T08:08:44.881Z,72.50
2018-09-19T08:09:44.996Z,72.30
2018-09-19T08:10:44.970Z,72.06
2018-09-19T08:11:44.848Z,71.20
2018-09-19T08:12:44.844Z,71.46
2018-09-19T08:13:44.890Z,71.66
2018-09-19T08:14:44.817Z,70.96
2018-09-19T08:15:45.009Z,70.96
2018-09-19T08:16:44.868Z,70.96
2018-09-19T08:17:44.840Z,70.53
2018-09-19T08:18:44.825Z,70.62
2018-09-19T08:19:45.029Z,70.03
2018-09-19T08:20:44.748Z,69.73
2018-09-19T08:21:44.746Z,69.89
2018-09-19T08:22:44.903Z,70.09
2018-09-19T08:23:44.717Z,69.99
2018-09-19T08:24:44.959Z,69.76
2018-09-19T08:25:44.698Z,69.66
2018-09-19T08:26:44.676Z,69.46
2018-09-19T08:27:44.774Z,69.02
2018-09-19T08:28:44.820Z,68.62
2018-09-19T08:29:44.919Z,68.23
2018-09-19T08:30:44.656Z,67.72
2018-09-19T08:31:44.666Z,67.79
2018-09-19T08:32:45.300Z,67.40
2018-09-19T08:33:44.604Z,66.96
2018-09-19T08:34:44.600Z,66.96
2018-09-19T08:35:44.591Z,66.96
2018-09-19T08:36:44.597Z,66.66
2018-09-19T08:37:44.577Z,66.53
2018-09-19T08:38:44.547Z,66.43
2018-09-19T08:39:44.545Z,65.40
2018-09-19T08:40:44.545Z,65.70
2018-09-19T08:41:44.668Z,65.60
2018-09-19T08:42:44.507Z,65.47
2018-09-19T08:43:45.495Z,65.07
2018-09-19T08:44:44.500Z,64.44
2018-09-19T08:45:44.486Z,64.54
2018-09-19T08:46:44.466Z,64.64
2018-09-19T08:47:44.462Z,65.23
2018-09-19T08:48:44.468Z,64.01
2018-09-19T08:49:44.429Z,63.81
2018-09-19T08:50:44.440Z,63.91
2018-09-19T08:51:44.416Z,63.81
2018-09-19T08:52:44.409Z,63.51
2018-09-19T08:53:44.395Z,63.21
2018-09-19T08:54:44.401Z,63.21
2018-09-19T08:55:44.364Z,63.21
2018-09-19T08:56:44.349Z,63.28
2018-09-19T08:57:44.347Z,63.11
2018-09-19T08:58:44.364Z,62.81
2018-09-19T08:59:44.325Z,62.71
2018-09-19T09:00:44.307Z,62.81
2018-09-19T09:01:49.027Z,63.41
2018-09-19T09:02:44.299Z,63.61
2018-09-19T09:03:44.267Z,63.81
2018-09-19T09:04:44.269Z,63.81
2018-09-19T09:05:44.262Z,63.61
2018-09-19T09:06:44.278Z,63.71
2018-09-19T09:07:44.242Z,62.91
2018-09-19T09:08:44.226Z,62.41
2018-09-19T09:09:45.221Z,62.29
2018-09-19T09:10:44.206Z,62.08
2018-09-19T09:11:44.450Z,61.79
2018-09-19T09:12:44.258Z,61.88
2018-09-19T09:13:44.161Z,61.88
2018-09-19T09:14:44.434Z,61.88
2018-09-19T09:15:44.161Z,62.18
2018-09-19T09:16:44.136Z,61.55
2018-09-19T09:17:44.235Z,61.99
2018-09-19T09:18:44.118Z,62.35
2018-09-19T09:19:44.144Z,62.55
2018-09-19T09:20:44.096Z,61.55
2018-09-19T09:21:44.337Z,61.16
2018-09-19T09:22:44.065Z,61.96
2018-09-19T09:23:44.057Z,61.85
2018-09-19T09:24:44.049Z,61.33
2018-09-19T09:25:44.034Z,61.72
2018-09-19T09:26:44.098Z,61.25
2018-09-19T09:27:44.012Z,61.43
2018-09-19T09:28:44.265Z,61.13
2018-09-19T09:29:43.988Z,60.73
2018-09-19T09:30:43.993Z,60.53
2018-09-19T09:31:44.096Z,60.03
2018-09-19T09:32:43.970Z,60.43
2018-09-19T09:33:43.943Z,59.94
2018-09-19T09:34:43.942Z,59.61
2018-09-19T09:35:43.934Z,60.11
2018-09-19T09:36:45.039Z,60.17
2018-09-19T09:37:43.912Z,59.28
2018-09-19T09:38:43.883Z,59.38
2018-09-19T09:39:44.028Z,59.18
2018-09-19T09:40:43.868Z,59.05
2018-09-19T09:41:43.891Z,58.13
2018-09-19T09:42:43.839Z,57.73
2018-09-19T09:43:43.831Z,58.50
2018-09-19T09:44:43.833Z,57.08
2018-09-19T09:45:43.825Z,57.08
2018-09-19T09:46:44.065Z,56.06
2018-09-19T09:47:43.800Z,55.66
2018-09-19T09:48:43.785Z,55.57
2018-09-19T09:49:44.029Z,54.85
2018-09-19T09:50:43.759Z,54.55
2018-09-19T09:51:43.747Z,54.15
2018-09-19T09:52:43.737Z,54.22
2018-09-19T09:53:43.986Z,53.92
2018-09-19T09:54:43.831Z,53.90
2018-09-19T09:55:43.986Z,52.41
2018-09-19T09:56:43.699Z,53.11
2018-09-19T09:57:43.951Z,51.99
2018-09-19T09:58:43.674Z,52.09
2018-09-19T09:59:43.671Z,51.89
2018-09-19T10:00:43.914Z,51.70
2018-09-19T10:01:43.902Z,51.70
2018-09-19T10:02:43.637Z,51.28
2018-09-19T10:03:43.613Z,51.28
2018-09-19T10:04:45.893Z,51.07
2018-09-19T10:05:43.606Z,50.58
2018-09-19T10:06:43.588Z,49.89
2018-09-19T10:07:43.584Z,50.36
2018-09-19T10:08:43.574Z,49.87
2018-09-19T10:09:43.546Z,49.77
2018-09-19T10:10:43.536Z,49.96
2018-09-19T10:11:43.528Z,50.36
2018-09-19T10:12:43.544Z,50.16
2018-09-19T10:13:43.831Z,50.13
2018-09-19T10:14:43.496Z,49.54
2018-09-19T10:15:47.606Z,49.84
2018-09-19T10:16:43.479Z,49.84
2018-09-19T10:17:43.468Z,49.82
2018-09-19T10:18:43.718Z,49.82
2018-09-19T10:19:43.558Z,49.74
2018-09-19T10:20:43.488Z,49.74
2018-09-19T10:21:43.419Z,50.34
2018-09-19T10:22:43.419Z,49.64
2018-09-19T10:23:43.429Z,50.63
2018-09-19T10:24:43.650Z,50.46
2018-09-19T10:25:43.381Z,51.05
2018-09-19T10:26:43.386Z,50.46
2018-09-19T10:27:43.736Z,49.84
2018-09-19T10:28:43.452Z,49.87
2018-09-19T10:29:43.398Z,50.76
2018-09-19T10:30:43.321Z,49.87
2018-09-19T10:31:43.575Z,50.04
2018-09-19T10:32:43.312Z,50.63
2018-09-19T10:33:43.335Z,49.74
2018-09-19T10:34:43.283Z,49.74
2018-09-19T10:35:43.273Z,49.77
2018-09-19T10:36:43.567Z,49.94
2018-09-19T10:37:43.514Z,49.74
2018-09-19T10:38:43.243Z,49.22
2018-09-19T10:39:43.290Z,49.02
2018-09-19T10:40:43.224Z,48.63
2018-09-19T10:41:43.284Z,48.31
2018-09-19T10:42:43.210Z,48.61
2018-09-19T10:43:46.227Z,47.72
2018-09-19T10:44:43.290Z,48.02
2018-09-19T10:45:44.149Z,47.10
2018-09-19T10:46:43.159Z,47.50
2018-09-19T10:47:43.411Z,47.20
2018-09-19T10:48:43.392Z,46.81
2018-09-19T10:49:43.121Z,47.10
2018-09-19T10:50:43.129Z,46.51
2018-09-19T10:51:43.606Z,46.41
2018-09-19T10:52:43.100Z,46.51
2018-09-19T10:53:43.131Z,46.61
2018-09-19T10:54:43.072Z,46.51
2018-09-19T10:55:43.716Z,47.30
2018-09-19T10:56:43.129Z,47.00
2018-09-19T10:57:43.037Z,46.48
2018-09-19T10:58:43.042Z,46.59
2018-09-19T10:59:43.299Z,46.59
2018-09-19T11:00:43.012Z,46.59
2018-09-19T11:01:43.273Z,46.69
2018-09-19T11:02:42.988Z,46.69
2018-09-19T11:03:42.979Z,46.19
2018-09-19T11:04:42.980Z,45.79
2018-09-19T11:05:42.964Z,45.89
2018-09-19T11:06:42.958Z,46.69
2018-09-19T11:07:42.943Z,46.48
2018-09-19T11:08:42.921Z,46.69
2018-09-19T11:09:42.930Z,46.22
2018-09-19T11:10:42.911Z,46.81
2018-09-19T11:11:42.905Z,46.81
2018-09-19T11:12:42.880Z,46.61
2018-09-19T11:13:42.902Z,46.29
2018-09-19T11:14:43.359Z,46.78
2018-09-19T11:15:46.136Z,46.88
2018-09-19T11:16:42.856Z,46.78
2018-09-19T11:17:43.095Z,45.97
2018-09-19T11:18:42.842Z,46.17
2018-09-19T11:19:42.842Z,45.38
2018-09-19T11:20:44.199Z,45.48
2018-09-19T11:21:42.796Z,45.57
2018-09-19T11:22:42.787Z,45.18
2018-09-19T11:23:42.769Z,44.37
2018-09-19T11:24:43.009Z,44.47
2018-09-19T11:25:42.759Z,43.98
2018-09-19T11:26:42.746Z,43.98
2018-09-19T11:27:42.741Z,43.80
2018-09-19T11:28:42.727Z,44.10
2018-09-19T11:29:42.712Z,43.98
2018-09-19T11:30:42.686Z,43.90
2018-09-19T11:31:42.683Z,44.10
2018-09-19T11:32:42.665Z,44.07
2018-09-19T11:33:42.713Z,44.20
2018-09-19T11:34:42.917Z,44.07
2018-09-19T11:35:42.643Z,44.39
2018-09-19T11:36:42.627Z,44.49
2018-09-19T11:37:42.657Z,44.57
2018-09-19T11:38:42.905Z,44.07
2018-09-19T11:39:42.602Z,43.59
2018-09-19T11:40:42.692Z,44.07
2018-09-19T11:41:42.575Z,44.47
2018-09-19T11:42:42.875Z,43.98
2018-09-19T11:43:42.548Z,44.37
2018-09-19T11:44:42.819Z,44.27
2018-09-19T11:45:42.542Z,44.20
2018-09-19T11:46:42.532Z,43.98
2018-09-19T11:47:42.501Z,43.88
2018-09-19T11:48:42.973Z,43.88
2018-09-19T11:49:42.487Z,43.68
2018-09-19T11:50:42.474Z,43.29
2018-09-19T11:51:42.458Z,43.98
2018-09-19T11:52:42.955Z,43.38
2018-09-19T11:53:42.440Z,43.48
2018-09-19T11:54:42.430Z,43.38
2018-09-19T11:55:42.418Z,44.07
2018-09-19T11:56:42.413Z,44.07
2018-09-19T11:57:42.546Z,43.59
2018-09-19T11:58:42.406Z,43.37
2018-09-19T11:59:42.402Z,43.17
2018-09-19T12:00:42.358Z,43.17
2018-09-19T12:01:42.352Z,43.27
2018-09-19T12:02:42.350Z,43.96
2018-09-19T12:03:42.603Z,43.37
2018-09-19T12:04:42.339Z,44.03
2018-09-19T12:05:42.340Z,43.34
2018-09-19T12:06:42.509Z,42.85
2018-09-19T12:07:42.286Z,42.34
2018-09-19T12:08:42.273Z,42.83
2018-09-19T12:09:42.304Z,42.73
2018-09-19T12:10:42.380Z,41.94
2018-09-19T12:11:42.532Z,41.77
2018-09-19T12:12:42.242Z,41.85
2018-09-19T12:13:42.391Z,42.04
2018-09-19T12:14:42.338Z,43.05
2018-09-19T12:15:45.818Z,42.83
2018-09-19T12:16:42.472Z,42.83
2018-09-19T12:17:42.198Z,42.76
2018-09-19T12:19:00.169Z,42.83
2018-09-19T12:19:42.169Z,42.83
2018-09-19T12:20:42.207Z,43.03
2018-09-19T12:21:42.138Z,42.63
2018-09-19T12:22:42.129Z,42.36
2018-09-19T12:23:42.421Z,42.85
2018-09-19T12:24:42.104Z,42.47
2018-09-19T12:25:42.493Z,42.46
2018-09-19T12:26:42.284Z,43.17
2018-09-19T12:27:42.071Z,43.56
2018-09-19T12:28:42.083Z,42.99
2018-09-19T12:29:42.132Z,43.98
2018-09-19T12:30:42.436Z,43.56
2018-09-19T12:31:42.027Z,43.19
2018-09-19T12:32:42.319Z,42.79
2018-09-19T12:33:43.131Z,43.68
2018-09-19T12:34:42.111Z,43.38
2018-09-19T12:35:42.107Z,43.38
2018-09-19T12:36:42.247Z,43.68
2018-09-19T12:37:41.969Z,43.59
2018-09-19T12:38:42.238Z,43.88
2018-09-19T12:39:42.129Z,43.59
2018-09-19T12:40:41.956Z,43.38
2018-09-19T12:41:42.113Z,43.29
2018-09-19T12:42:41.916Z,43.88
2018-09-19T12:43:41.904Z,43.38
2018-09-19T12:44:41.899Z,43.78
2018-09-19T12:45:41.886Z,43.90
2018-09-19T12:46:41.888Z,43.41
2018-09-19T12:47:41.861Z,43.70
2018-09-19T12:48:41.845Z,43.41
2018-09-19T12:49:41.839Z,44.00
2018-09-19T12:50:41.820Z,43.88
2018-09-19T12:51:42.085Z,43.48
2018-09-19T12:52:41.817Z,43.59